createdAt,value
2022-11-29T00:05:33.353Z,6.10
2022-11-29T00:15:33.513Z,6.09
2022-11-29T00:25:33.753Z,6.09
2022-11-29T00:35:33.931Z,6.10
2022-11-29T00:45:34.083Z,6.07
2022-11-29T00:55:34.131Z,6.14
2022-11-29T01:05:34.373Z,6.28
2022-11-29T01:15:34.529Z,6.36
2022-11-29T01:25:34.784Z,6.48
2022-11-29T01:35:34.990Z,6.61
2022-11-29T01:45:35.241Z,6.68
2022-11-29T01:55:35.583Z,6.76
2022-11-29T02:05:35.528Z,6.84
2022-11-29T02:15:35.800Z,6.91
2022-11-29T02:25:36.026Z,6.97
2022-11-29T02:35:36.222Z,6.99
2022-11-29T02:45:36.233Z,7.02
2022-11-29T02:55:36.416Z,7.01
2022-11-29T03:05:36.644Z,7.01
2022-11-29T03:15:36.958Z,7.02
2022-11-29T03:25:36.959Z,7.05
2022-11-29T03:35:37.133Z,7.04
2022-11-29T03:45:37.262Z,7.07
2022-11-29T03:55:37.422Z,7.08
2022-11-29T04:05:37.669Z,7.08
2022-11-29T04:15:37.894Z,7.07
2022-11-29T04:25:38.009Z,7.07
2022-11-29T04:35:38.179Z,7.04
2022-11-29T04:45:38.291Z,7.01
2022-11-29T04:55:38.449Z,6.99
2022-11-29T05:05:38.696Z,6.95
2022-11-29T05:15:38.933Z,6.94
2022-11-29T05:25:39.055Z,6.90
2022-11-29T05:35:39.307Z,6.90
2022-11-29T05:45:39.416Z,6.90
2022-11-29T05:55:39.589Z,6.89
2022-11-29T06:05:39.813Z,6.89
2022-11-29T06:15:40.280Z,6.86
2022-11-29T06:25:40.270Z,6.80
2022-11-29T06:35:40.350Z,6.77
2022-11-29T06:45:40.463Z,6.73
2022-11-29T06:55:40.643Z,6.72
2022-11-29T07:05:41.074Z,6.76
2022-11-29T07:15:41.026Z,6.76
2022-11-29T07:25:41.150Z,6.72
2022-11-29T07:35:41.352Z,6.73
2022-11-29T07:45:41.573Z,6.73
2022-11-29T07:55:41.639Z,6.73
2022-11-29T08:05:41.874Z,6.72
2022-11-29T08:15:42.033Z,6.72
2022-11-29T08:25:42.286Z,6.77
2022-11-29T08:35:42.438Z,6.79
2022-11-29T08:45:42.739Z,6.79
2022-11-29T08:55:43.141Z,6.91
2022-11-29T09:05:43.010Z,6.95
2022-11-29T09:15:43.164Z,6.97
2022-11-29T09:25:43.405Z,7.05
2022-11-29T09:35:43.591Z,7.17
2022-11-29T09:45:43.735Z,7.22
2022-11-29T09:55:43.944Z,7.32
2022-11-29T10:05:44.055Z,7.26
2022-11-29T10:15:44.206Z,7.19
2022-11-29T10:25:44.485Z,7.17
2022-11-29T10:35:44.758Z,7.23
2022-11-29T10:45:44.786Z,7.23
2022-11-29T10:55:44.845Z,7.27
2022-11-29T11:05:45.334Z,7.29
2022-11-29T11:15:45.211Z,7.32
2022-11-29T11:25:45.533Z,7.31
2022-11-29T11:35:45.604Z,7.23
2022-11-29T11:45:46.139Z,7.29
2022-11-29T11:55:46.003Z,7.27
2022-11-29T12:05:46.473Z,7.34
2022-11-29T12:15:46.644Z,7.37
2022-11-29T12:25:46.616Z,7.44
2022-11-29T12:35:46.865Z,7.72
2022-11-29T12:45:47.161Z,7.85
2022-11-29T12:55:47.002Z,7.62
2022-11-29T13:05:47.412Z,7.63
2022-11-29T13:15:47.337Z,7.50
2022-11-29T13:25:47.649Z,7.44
2022-11-29T13:35:47.727Z,7.44
2022-11-29T13:45:47.930Z,7.60
2022-11-29T13:55:47.994Z,7.53
2022-11-29T14:05:48.117Z,7.52
2022-11-29T14:15:48.289Z,7.42
2022-11-29T14:25:52.422Z,7.41
2022-11-29T14:35:48.575Z,7.35
2022-11-29T14:45:48.708Z,7.32
2022-11-29T14:55:48.877Z,7.31
2022-11-29T15:05:49.187Z,7.24
2022-11-29T15:15:49.564Z,7.22
2022-11-29T15:25:49.474Z,7.20
2022-11-29T15:35:49.706Z,7.15
2022-11-29T15:45:49.969Z,7.12
2022-11-29T15:55:50.266Z,7.09
2022-11-29T16:05:50.168Z,7.04
2022-11-29T16:15:50.355Z,6.98
2022-11-29T16:25:50.588Z,6.95
2022-11-29T16:35:50.771Z,6.97
2022-11-29T16:45:50.948Z,6.94
2022-11-29T16:55:51.003Z,6.95
2022-11-29T17:05:51.313Z,6.95
2022-11-29T17:15:51.571Z,6.91
2022-11-29T17:25:51.862Z,6.83
2022-11-29T17:35:51.699Z,6.80
2022-11-29T17:45:51.982Z,6.79
2022-11-29T17:55:52.367Z,6.81
2022-11-29T18:05:52.259Z,6.79
2022-11-29T18:15:52.623Z,6.71
2022-11-29T18:25:52.616Z,6.65
2022-11-29T18:35:52.768Z,6.56
2022-11-29T18:45:53.147Z,6.51
2022-11-29T18:55:53.106Z,6.47
2022-11-29T19:05:53.455Z,6.44
2022-11-29T19:15:54.676Z,6.48
2022-11-29T19:25:53.693Z,6.43
2022-11-29T19:35:53.844Z,6.35
2022-11-29T19:45:54.133Z,6.35
2022-11-29T19:55:54.192Z,6.29
2022-11-29T20:05:54.445Z,6.26
2022-11-29T20:15:54.808Z,6.22
2022-11-29T20:25:54.799Z,6.26
2022-11-29T20:35:54.964Z,6.13
2022-11-29T20:45:55.280Z,6.07
2022-11-29T20:55:55.357Z,6.04
2022-11-29T21:05:55.594Z,6.00
2022-11-29T21:15:55.840Z,5.93
2022-11-29T21:25:55.953Z,5.92
2022-11-29T21:35:56.130Z,5.91
2022-11-29T21:45:56.340Z,5.92
2022-11-29T21:55:56.584Z,5.88
2022-11-29T22:05:56.883Z,5.86
2022-11-29T22:15:56.947Z,5.85
2022-11-29T22:25:57.038Z,5.85
2022-11-29T22:35:57.300Z,5.85
2022-11-29T22:45:57.465Z,5.85
2022-11-29T22:55:57.532Z,5.86
2022-11-29T23:05:57.758Z,5.85
2022-11-29T23:15:57.940Z,5.78
2022-11-29T23:25:58.165Z,5.75
2022-11-29T23:35:58.347Z,5.74
2022-11-29T23:45:58.638Z,5.75
2022-11-29T23:55:58.724Z,5.75
